Time;durP1;ratioP1;P1;durP2;ratioP2;P2;SDS_P1;SDS_P2;PMS_P1;PMS_P2;Temp;Humidity;BMP_temperature;BMP_pressure;BME280_temperature;BME280_humidity;BME280_pressure;Samples;Min_cycle;Max_cycle;Signal;HPM_P1;HPM_P2
2022/11/12 00:00:55;;;;;;;14.63;12.98;;;;;;;;;;5065776;28;20429;-80
2022/11/12 00:03:22;;;;;;;15.38;12.40;;;;;;;;;;5065886;28;20435;-81
2022/11/12 00:05:49;;;;;;;17.58;13.23;;;;;;;;;;5066166;28;20419;-81
2022/11/12 00:08:17;;;;;;;14.85;12.88;;;;;;;;;;5064803;28;20477;-81
2022/11/12 00:10:45;;;;;;;15.13;12.73;;;;;;;;;;5067895;28;20425;-81
2022/11/12 00:13:11;;;;;;;17.37;13.77;;;;;;;;;;5064411;28;20416;-81
2022/11/12 00:15:38;;;;;;;14.63;12.80;;;;;;;;;;5064558;28;20505;-81
2022/11/12 00:18:06;;;;;;;17.23;13.27;;;;;;;;;;5065158;28;20431;-81
2022/11/12 00:20:32;;;;;;;14.27;12.77;;;;;;;;;;5067302;28;20415;-81
2022/11/12 00:22:59;;;;;;;14.55;13.00;;;;;;;;;;5062811;28;20421;-81
2022/11/12 00:25:29;;;;;;;16.38;13.20;;;;;;;;;;5069748;28;20518;-82
2022/11/12 00:28:00;;;;;;;16.15;12.68;;;;;;;;;;5061857;28;20406;-81
2022/11/12 00:30:27;;;;;;;16.10;13.25;;;;;;;;;;5063161;28;20431;-81
2022/11/12 00:32:53;;;;;;;17.08;13.75;;;;;;;;;;5070068;28;20413;-81
2022/11/12 00:35:20;;;;;;;20.27;14.23;;;;;;;;;;5061799;28;20468;-81
2022/11/12 00:37:46;;;;;;;17.13;13.73;;;;;;;;;;5063605;28;20431;-81
2022/11/12 00:40:13;;;;;;;15.90;12.40;;;;;;;;;;5064871;28;20436;-81
2022/11/12 00:42:40;;;;;;;13.97;12.10;;;;;;;;;;5062331;28;20453;-81
2022/11/12 00:45:08;;;;;;;17.05;13.20;;;;;;;;;;5070718;28;20429;-81
2022/11/12 00:47:35;;;;;;;17.00;13.50;;;;;;;;;;5062015;28;20423;-81
2022/11/12 00:50:01;;;;;;;15.07;13.20;;;;;;;;;;5069815;28;20432;-81
2022/11/12 00:52:27;;;;;;;16.40;13.82;;;;;;;;;;5064502;28;20421;-81
2022/11/12 00:54:54;;;;;;;15.50;12.75;;;;;;;;;;5064050;28;20411;-81
2022/11/12 00:57:20;;;;;;;18.17;13.70;;;;;;;;;;5062969;28;20442;-80
2022/11/12 00:59:48;;;;;;;15.73;12.00;;;;;;;;;;5067559;28;20434;-81
2022/11/12 01:02:14;;;;;;;14.23;12.43;;;;;;;;;;5069553;28;20431;-81
2022/11/12 01:04:41;;;;;;;17.37;12.20;;;;;;;;;;5067551;28;20421;-81
2022/11/12 01:07:07;;;;;;;17.45;13.00;;;;;;;;;;5066963;28;20791;-81
2022/11/12 01:09:34;;;;;;;18.35;12.90;;;;;;;;;;5069328;28;20423;-81
2022/11/12 01:12:00;;;;;;;16.88;12.38;;;;;;;;;;5069650;28;20419;-81
2022/11/12 01:14:27;;;;;;;15.53;13.03;;;;;;;;;;5063731;28;20428;-80
2022/11/12 01:16:55;;;;;;;15.90;12.57;;;;;;;;;;5070806;28;20427;-81
2022/11/12 01:19:21;;;;;;;15.05;13.32;;;;;;;;;;5064606;28;20425;-81
2022/11/12 01:21:47;;;;;;;17.20;12.57;;;;;;;;;;5068021;28;20428;-81
2022/11/12 01:24:14;;;;;;;14.65;13.07;;;;;;;;;;5067911;28;20919;-81
2022/11/12 01:26:42;;;;;;;20.30;14.00;;;;;;;;;;5067391;28;20427;-81
2022/11/12 01:29:11;;;;;;;16.67;14.40;;;;;;;;;;5066333;28;20450;-80
2022/11/12 01:31:38;;;;;;;19.50;14.40;;;;;;;;;;5068528;28;20433;-82
2022/11/12 01:34:07;;;;;;;16.92;13.27;;;;;;;;;;5067555;28;20799;-82
2022/11/12 01:36:34;;;;;;;14.70;13.02;;;;;;;;;;5069534;28;20427;-82
2022/11/12 01:39:01;;;;;;;17.58;13.43;;;;;;;;;;5069414;28;20426;-81
2022/11/12 01:41:29;;;;;;;18.85;13.80;;;;;;;;;;5067331;28;20434;-82
2022/11/12 01:44:09;;;;;;;15.50;13.18;;;;;;;;;;5069495;28;20956;-81
2022/11/12 01:46:40;;;;;;;19.83;13.40;;;;;;;;;;5070247;28;20415;-82
2022/11/12 01:49:11;;;;;;;18.05;13.68;;;;;;;;;;5067282;28;20415;-82
2022/11/12 01:51:40;;;;;;;16.80;13.93;;;;;;;;;;5067898;28;20966;-82
2022/11/12 01:54:08;;;;;;;19.05;15.40;;;;;;;;;;5068652;28;20494;-82
2022/11/12 01:56:35;;;;;;;17.55;13.40;;;;;;;;;;5067848;28;20419;-82
2022/11/12 01:59:04;;;;;;;18.15;13.93;;;;;;;;;;5065467;28;20425;-82
2022/11/12 02:01:30;;;;;;;17.75;14.40;;;;;;;;;;5068916;28;20429;-82
2022/11/12 02:03:57;;;;;;;20.23;14.05;;;;;;;;;;5065175;28;20421;-84
2022/11/12 02:06:24;;;;;;;20.77;15.32;;;;;;;;;;5067228;28;20421;-81
2022/11/12 02:08:51;;;;;;;18.40;14.40;;;;;;;;;;5072020;28;20941;-83
2022/11/12 02:11:19;;;;;;;21.80;15.38;;;;;;;;;;5065229;28;20420;-82
2022/11/12 02:13:57;;;;;;;19.23;15.23;;;;;;;;;;5067108;28;20420;-82
2022/11/12 02:16:23;;;;;;;19.88;15.73;;;;;;;;;;5069372;28;20425;-82
2022/11/12 02:18:50;;;;;;;18.83;14.00;;;;;;;;;;5062153;28;20425;-82
2022/11/12 02:21:19;;;;;;;20.00;15.03;;;;;;;;;;5068538;28;20906;-81
2022/11/12 02:23:46;;;;;;;20.20;14.55;;;;;;;;;;5066604;28;20420;-82
2022/11/12 02:26:12;;;;;;;20.33;14.80;;;;;;;;;;5067444;28;20413;-82
2022/11/12 02:28:39;;;;;;;21.50;14.90;;;;;;;;;;5067213;28;21012;-82
2022/11/12 02:31:05;;;;;;;23.40;16.23;;;;;;;;;;5067541;28;20428;-81
2022/11/12 02:33:34;;;;;;;18.63;15.23;;;;;;;;;;5065382;28;20428;-81
2022/11/12 02:36:00;;;;;;;20.67;15.85;;;;;;;;;;5080372;28;20411;-81
2022/11/12 02:38:28;;;;;;;20.73;15.70;;;;;;;;;;5068399;28;20424;-82
2022/11/12 02:40:55;;;;;;;21.57;16.57;;;;;;;;;;5069800;28;20411;-82
2022/11/12 02:43:22;;;;;;;20.65;16.10;;;;;;;;;;5065740;28;20425;-81
2022/11/12 02:45:48;;;;;;;21.88;16.40;;;;;;;;;;5064942;28;20429;-82
2022/11/12 02:48:16;;;;;;;19.75;14.85;;;;;;;;;;5070143;28;20432;-82
2022/11/12 02:50:42;;;;;;;18.73;15.38;;;;;;;;;;5071013;28;20944;-82
2022/11/12 02:53:09;;;;;;;20.60;14.90;;;;;;;;;;5066226;28;20420;-81
2022/11/12 02:55:39;;;;;;;20.15;14.75;;;;;;;;;;5065944;28;20439;-81
2022/11/12 02:58:05;;;;;;;17.45;15.32;;;;;;;;;;5063887;28;20421;-82
2022/11/12 03:00:32;;;;;;;18.58;14.93;;;;;;;;;;5064701;28;20433;-83
2022/11/12 03:02:58;;;;;;;20.85;15.40;;;;;;;;;;5065316;28;20427;-82
2022/11/12 03:05:25;;;;;;;19.98;14.70;;;;;;;;;;5064905;28;20489;-81
2022/11/12 03:07:56;;;;;;;17.90;13.97;;;;;;;;;;5066213;28;20478;-81
2022/11/12 03:10:24;;;;;;;21.45;15.75;;;;;;;;;;5070823;28;20434;-82
2022/11/12 03:12:52;;;;;;;20.65;15.65;;;;;;;;;;5067958;28;20781;-82
2022/11/12 03:15:19;;;;;;;17.90;14.77;;;;;;;;;;5065979;28;20425;-82
2022/11/12 03:17:45;;;;;;;22.75;15.10;;;;;;;;;;5070456;28;20417;-81
2022/11/12 03:20:12;;;;;;;18.80;14.23;;;;;;;;;;5063548;28;20440;-82
2022/11/12 03:22:39;;;;;;;18.48;14.35;;;;;;;;;;5064683;28;20416;-82
2022/11/12 03:25:06;;;;;;;18.08;14.75;;;;;;;;;;5067710;28;20433;-81
2022/11/12 03:27:33;;;;;;;20.92;15.05;;;;;;;;;;5064174;28;20425;-81
2022/11/12 03:30:00;;;;;;;20.20;15.60;;;;;;;;;;5064860;28;20428;-82
2022/11/12 03:32:27;;;;;;;18.83;14.93;;;;;;;;;;5060643;28;20439;-82
2022/11/12 03:34:53;;;;;;;18.23;14.35;;;;;;;;;;5062192;28;20423;-82
2022/11/12 03:37:20;;;;;;;17.17;14.45;;;;;;;;;;5063841;28;20434;-83
2022/11/12 03:39:46;;;;;;;17.50;14.88;;;;;;;;;;5064310;28;20429;-82
2022/11/12 03:42:12;;;;;;;17.88;14.55;;;;;;;;;;5068373;28;20417;-82
2022/11/12 03:44:39;;;;;;;18.73;14.15;;;;;;;;;;5063699;28;21152;-82
2022/11/12 03:47:07;;;;;;;18.93;13.93;;;;;;;;;;5063503;28;20435;-82
2022/11/12 03:49:33;;;;;;;17.30;14.30;;;;;;;;;;5064487;28;20433;-82
2022/11/12 03:51:59;;;;;;;15.70;13.73;;;;;;;;;;5066360;28;20922;-80
2022/11/12 03:54:26;;;;;;;15.65;13.52;;;;;;;;;;5061122;28;20424;-80
2022/11/12 03:56:52;;;;;;;17.30;14.50;;;;;;;;;;5066565;28;20913;-80
2022/11/12 03:59:19;;;;;;;19.88;14.85;;;;;;;;;;5065608;28;20429;-80
2022/11/12 04:01:46;;;;;;;18.00;13.63;;;;;;;;;;5062226;28;20502;-80
2022/11/12 04:04:14;;;;;;;16.17;13.40;;;;;;;;;;5065846;28;20430;-80
2022/11/12 04:09:25;;;;;;;18.83;13.68;;;;;;;;;;5062798;28;20428;-81
2022/11/12 04:11:53;;;;;;;15.93;14.00;;;;;;;;;;5067502;28;20416;-81
2022/11/12 04:14:20;;;;;;;16.67;14.07;;;;;;;;;;5067950;28;20797;-81
2022/11/12 04:22:16;;;;;;;15.93;13.73;;;;;;;;;;5064615;28;20454;-81
2022/11/12 04:27:28;;;;;;;18.85;14.65;;;;;;;;;;5070332;28;20476;-81
2022/11/12 04:32:41;;;;;;;17.90;14.80;;;;;;;;;;5066032;28;20417;-82
2022/11/12 04:35:09;;;;;;;18.60;13.75;;;;;;;;;;5064884;28;20506;-82
2022/11/12 04:37:44;;;;;;;16.00;14.23;;;;;;;;;;5067235;28;20403;-81
2022/11/12 04:45:36;;;;;;;16.23;13.13;;;;;;;;;;5068831;28;20418;-80
2022/11/12 04:48:02;;;;;;;14.80;13.20;;;;;;;;;;5070782;28;20447;-80
2022/11/12 04:50:30;;;;;;;17.13;13.98;;;;;;;;;;5091794;28;20416;-80
2022/11/12 04:52:57;;;;;;;17.23;14.00;;;;;;;;;;5061254;28;20454;-80
2022/11/12 04:55:23;;;;;;;20.67;13.60;;;;;;;;;;5062139;28;20483;-80
2022/11/12 04:57:50;;;;;;;17.02;13.80;;;;;;;;;;5061709;28;20421;-80
2022/11/12 05:00:17;;;;;;;17.40;12.80;;;;;;;;;;5071326;28;20429;-80
2022/11/12 05:02:43;;;;;;;17.48;12.93;;;;;;;;;;5060316;28;20398;-80
2022/11/12 05:05:10;;;;;;;17.85;13.52;;;;;;;;;;5063221;28;20427;-80
2022/11/12 05:07:38;;;;;;;14.70;12.20;;;;;;;;;;5062576;28;20772;-82
2022/11/12 05:10:05;;;;;;;16.13;13.18;;;;;;;;;;5061097;28;20485;-82
2022/11/12 05:12:31;;;;;;;15.93;11.93;;;;;;;;;;5066411;28;20785;-82
2022/11/12 05:14:58;;;;;;;17.65;12.73;;;;;;;;;;5065870;28;20425;-80
2022/11/12 05:17:26;;;;;;;23.05;16.27;;;;;;;;;;5065900;28;20436;-80
2022/11/12 05:19:52;;;;;;;19.92;13.25;;;;;;;;;;5062290;28;20806;-82
2022/11/12 05:22:19;;;;;;;16.05;13.57;;;;;;;;;;5064731;28;20432;-81
2022/11/12 05:24:47;;;;;;;16.75;13.00;;;;;;;;;;5064305;28;20427;-82
2022/11/12 05:27:15;;;;;;;14.15;11.80;;;;;;;;;;5062296;28;20443;-82
2022/11/12 05:29:42;;;;;;;15.60;12.03;;;;;;;;;;5065880;28;20491;-82
2022/11/12 05:32:11;;;;;;;13.90;11.73;;;;;;;;;;5064127;28;20433;-82
2022/11/12 05:34:37;;;;;;;16.63;12.93;;;;;;;;;;5064126;28;20431;-82
2022/11/12 05:37:05;;;;;;;12.85;11.43;;;;;;;;;;5064757;28;20483;-82
2022/11/12 05:39:31;;;;;;;17.17;12.07;;;;;;;;;;5062744;28;20425;-82
2022/11/12 05:42:02;;;;;;;18.88;13.00;;;;;;;;;;5066246;28;20415;-82
2022/11/12 05:44:29;;;;;;;16.20;11.70;;;;;;;;;;5064684;28;20421;-82
2022/11/12 05:46:56;;;;;;;15.25;11.30;;;;;;;;;;5066165;28;20412;-82
2022/11/12 05:49:22;;;;;;;14.20;11.60;;;;;;;;;;5065393;28;22493;-82
2022/11/12 05:51:50;;;;;;;12.80;11.50;;;;;;;;;;5072293;28;20426;-82
2022/11/12 05:54:16;;;;;;;14.02;11.00;;;;;;;;;;5063948;28;20424;-82
2022/11/12 05:56:43;;;;;;;14.05;10.27;;;;;;;;;;5063478;28;20949;-82
2022/11/12 05:59:12;;;;;;;15.98;12.10;;;;;;;;;;5065641;28;20425;-82
2022/11/12 06:01:43;;;;;;;12.57;10.40;;;;;;;;;;5065680;28;20434;-81
2022/11/12 06:04:11;;;;;;;13.95;11.30;;;;;;;;;;5066391;28;20843;-82
2022/11/12 06:06:38;;;;;;;17.58;12.00;;;;;;;;;;5061374;28;20437;-82
2022/11/12 06:09:05;;;;;;;14.15;12.40;;;;;;;;;;5068270;28;20418;-82
2022/11/12 06:11:31;;;;;;;18.05;12.65;;;;;;;;;;5066831;28;20433;-82
2022/11/12 06:13:58;;;;;;;16.30;12.02;;;;;;;;;;5065306;28;20440;-82
2022/11/12 06:16:27;;;;;;;15.70;11.82;;;;;;;;;;5071664;28;20428;-82
2022/11/12 06:18:54;;;;;;;17.27;12.25;;;;;;;;;;5067246;28;20932;-82
2022/11/12 06:21:21;;;;;;;15.70;12.73;;;;;;;;;;5067158;28;20410;-82
2022/11/12 06:23:48;;;;;;;16.27;12.93;;;;;;;;;;5071984;28;20411;-82
2022/11/12 06:26:14;;;;;;;14.45;11.52;;;;;;;;;;5067709;28;20451;-82
2022/11/12 06:28:41;;;;;;;14.63;11.67;;;;;;;;;;5062558;28;20518;-82
2022/11/12 06:31:07;;;;;;;16.67;12.48;;;;;;;;;;5068364;28;20431;-82
2022/11/12 06:33:35;;;;;;;15.40;12.50;;;;;;;;;;5073000;28;20425;-82
2022/11/12 06:36:05;;;;;;;14.85;12.10;;;;;;;;;;5067871;28;20445;-82
2022/11/12 06:38:31;;;;;;;15.70;13.02;;;;;;;;;;5066574;28;20420;-81
2022/11/12 06:40:58;;;;;;;16.25;13.25;;;;;;;;;;5067917;28;20429;-80
2022/11/12 06:43:24;;;;;;;14.27;12.77;;;;;;;;;;5068893;28;20413;-82
2022/11/12 06:45:51;;;;;;;14.50;12.68;;;;;;;;;;5069609;28;20426;-82
2022/11/12 06:48:17;;;;;;;14.43;12.80;;;;;;;;;;5068664;28;20426;-80
2022/11/12 06:50:45;;;;;;;14.77;12.43;;;;;;;;;;5066400;28;20430;-80
2022/11/12 06:53:12;;;;;;;17.50;13.93;;;;;;;;;;5067798;28;20420;-80
2022/11/12 06:55:38;;;;;;;16.65;11.93;;;;;;;;;;5064263;28;20429;-82
2022/11/12 06:58:05;;;;;;;15.75;13.52;;;;;;;;;;5062114;28;20805;-82
2022/11/12 07:00:32;;;;;;;16.85;13.23;;;;;;;;;;5065819;28;20423;-82
2022/11/12 07:02:58;;;;;;;15.00;13.10;;;;;;;;;;5065276;28;20510;-82
2022/11/12 07:05:27;;;;;;;15.73;12.32;;;;;;;;;;5066003;28;20438;-82
2022/11/12 07:07:56;;;;;;;17.63;12.68;;;;;;;;;;5063426;28;20429;-82
2022/11/12 07:10:22;;;;;;;17.47;13.40;;;;;;;;;;5065449;28;20931;-82
2022/11/12 07:12:49;;;;;;;17.35;12.63;;;;;;;;;;5064197;28;20408;-82
2022/11/12 07:15:15;;;;;;;16.25;12.98;;;;;;;;;;5064302;28;20902;-82
2022/11/12 07:17:44;;;;;;;19.17;13.82;;;;;;;;;;5059678;28;20411;-82
2022/11/12 07:20:11;;;;;;;14.40;12.13;;;;;;;;;;5064561;28;20436;-80
2022/11/12 07:22:38;;;;;;;14.90;13.30;;;;;;;;;;5065128;28;20403;-80
2022/11/12 07:25:06;;;;;;;15.45;12.60;;;;;;;;;;5064403;28;20758;-80
2022/11/12 07:27:33;;;;;;;17.52;13.32;;;;;;;;;;5063385;28;20436;-79
2022/11/12 07:30:01;;;;;;;15.27;12.52;;;;;;;;;;5067287;28;20429;-80
2022/11/12 07:32:28;;;;;;;15.88;13.07;;;;;;;;;;5066918;28;20437;-80
2022/11/12 07:34:56;;;;;;;14.68;12.45;;;;;;;;;;5067677;28;20431;-80
2022/11/12 07:37:23;;;;;;;14.77;12.30;;;;;;;;;;5064588;28;20421;-81
2022/11/12 07:39:50;;;;;;;14.23;11.85;;;;;;;;;;5066829;28;20922;-80
2022/11/12 07:42:19;;;;;;;14.88;12.50;;;;;;;;;;5064357;28;20429;-82
2022/11/12 07:44:46;;;;;;;17.55;12.07;;;;;;;;;;5065972;28;20427;-80
2022/11/12 07:47:13;;;;;;;18.60;14.05;;;;;;;;;;5070498;28;20432;-80
2022/11/12 07:49:39;;;;;;;16.75;13.50;;;;;;;;;;5066763;28;20429;-80
2022/11/12 07:52:05;;;;;;;17.63;13.93;;;;;;;;;;5073706;28;20915;-80
2022/11/12 07:54:32;;;;;;;19.75;13.05;;;;;;;;;;5066428;28;20424;-82
2022/11/12 07:56:59;;;;;;;16.85;13.10;;;;;;;;;;5065410;28;20433;-82
2022/11/12 07:59:27;;;;;;;17.30;13.65;;;;;;;;;;5064147;28;20428;-82
2022/11/12 08:01:53;;;;;;;18.40;14.47;;;;;;;;;;5062712;28;20453;-81
2022/11/12 08:04:19;;;;;;;18.35;13.68;;;;;;;;;;5065946;28;20935;-81
2022/11/12 08:06:46;;;;;;;18.65;14.73;;;;;;;;;;5062357;28;20421;-81
2022/11/12 08:09:13;;;;;;;20.25;14.90;;;;;;;;;;5064713;28;20933;-82
2022/11/12 08:11:40;;;;;;;20.42;15.70;;;;;;;;;;5062547;28;20429;-81
2022/11/12 08:14:07;;;;;;;19.65;15.30;;;;;;;;;;5068944;28;20420;-81
2022/11/12 08:16:35;;;;;;;22.30;16.88;;;;;;;;;;5061961;28;20455;-81
2022/11/12 08:19:01;;;;;;;18.50;16.25;;;;;;;;;;5063337;28;20432;-82
2022/11/12 08:21:28;;;;;;;21.40;17.33;;;;;;;;;;5063981;28;21069;-81
2022/11/12 08:23:54;;;;;;;20.90;18.15;;;;;;;;;;5064332;28;20427;-81
2022/11/12 08:26:21;;;;;;;23.30;16.90;;;;;;;;;;5065949;28;20434;-81
2022/11/12 08:28:47;;;;;;;22.00;18.43;;;;;;;;;;5061755;28;20433;-82
2022/11/12 08:31:15;;;;;;;24.10;18.88;;;;;;;;;;5066427;28;20427;-81
2022/11/12 08:33:43;;;;;;;25.35;20.70;;;;;;;;;;5065946;28;20433;-81
2022/11/12 08:36:10;;;;;;;22.97;18.60;;;;;;;;;;5068526;28;20435;-81
2022/11/12 08:38:37;;;;;;;26.58;21.80;;;;;;;;;;5064388;28;20425;-82
2022/11/12 08:41:06;;;;;;;27.98;24.98;;;;;;;;;;5063289;28;20427;-81
2022/11/12 08:43:32;;;;;;;27.42;23.92;;;;;;;;;;5063513;28;20479;-80
2022/11/12 08:45:59;;;;;;;37.28;28.58;;;;;;;;;;5060022;28;20426;-80
2022/11/12 08:48:26;;;;;;;33.38;26.02;;;;;;;;;;5058248;28;20428;-80
2022/11/12 08:50:56;;;;;;;33.30;26.00;;;;;;;;;;5046010;28;20425;-82
2022/11/12 08:53:26;;;;;;;30.70;26.55;;;;;;;;;;5061883;28;20910;-80
2022/11/12 08:55:54;;;;;;;34.92;28.23;;;;;;;;;;5062875;28;20427;-86
2022/11/12 08:58:20;;;;;;;36.90;28.13;;;;;;;;;;5076830;28;20465;-80
2022/11/12 09:00:47;;;;;;;38.42;27.38;;;;;;;;;;5081333;28;20430;-81
2022/11/12 09:03:14;;;;;;;33.55;24.90;;;;;;;;;;5065911;28;20427;-81
2022/11/12 09:05:41;;;;;;;31.85;25.65;;;;;;;;;;5067099;28;20766;-81
2022/11/12 09:08:14;;;;;;;30.05;25.05;;;;;;;;;;5068250;28;20436;-81
2022/11/12 09:10:41;;;;;;;32.75;25.80;;;;;;;;;;5074070;28;20427;-82
2022/11/12 09:13:08;;;;;;;35.05;26.35;;;;;;;;;;5065601;28;20423;-81
2022/11/12 09:15:34;;;;;;;32.78;25.20;;;;;;;;;;5063380;28;20516;-81
2022/11/12 09:18:04;;;;;;;31.73;26.48;;;;;;;;;;5065644;28;20419;-81
2022/11/12 09:20:32;;;;;;;35.45;28.20;;;;;;;;;;5067599;28;20428;-82
2022/11/12 09:22:59;;;;;;;32.08;26.90;;;;;;;;;;5069891;28;20419;-81
2022/11/12 09:25:26;;;;;;;36.67;27.65;;;;;;;;;;5070425;28;20425;-81
2022/11/12 09:27:54;;;;;;;31.08;24.83;;;;;;;;;;5068385;28;20422;-82
2022/11/12 09:30:20;;;;;;;27.60;21.55;;;;;;;;;;5072646;28;20430;-79
2022/11/12 09:32:47;;;;;;;23.83;21.20;;;;;;;;;;5070948;28;20422;-80
2022/11/12 09:35:13;;;;;;;24.17;20.20;;;;;;;;;;5070793;28;20433;-80
2022/11/12 09:37:41;;;;;;;20.15;17.80;;;;;;;;;;5064296;28;20488;-80
2022/11/12 09:40:11;;;;;;;21.13;18.60;;;;;;;;;;5070118;28;20437;-80
2022/11/12 09:42:40;;;;;;;21.98;19.10;;;;;;;;;;5069295;28;20440;-80
2022/11/12 09:45:11;;;;;;;23.90;18.02;;;;;;;;;;5072041;28;20421;-79
2022/11/12 09:47:41;;;;;;;21.35;18.33;;;;;;;;;;5072185;28;20454;-80
2022/11/12 09:50:16;;;;;;;22.08;19.08;;;;;;;;;;5069679;28;20436;-81
2022/11/12 09:52:44;;;;;;;22.00;17.63;;;;;;;;;;5073901;28;20429;-81
2022/11/12 09:55:15;;;;;;;22.20;17.42;;;;;;;;;;5070746;28;20436;-82
2022/11/12 09:57:42;;;;;;;21.00;15.98;;;;;;;;;;5067321;28;20419;-81
2022/11/12 10:00:14;;;;;;;19.15;15.52;;;;;;;;;;5066766;28;20423;-82
2022/11/12 10:02:44;;;;;;;17.95;14.55;;;;;;;;;;5067741;28;20425;-82
2022/11/12 10:05:22;;;;;;;16.67;14.52;;;;;;;;;;5068725;28;20816;-81
2022/11/12 10:07:54;;;;;;;20.02;15.50;;;;;;;;;;5076015;28;20434;-81
2022/11/12 10:10:24;;;;;;;17.67;14.00;;;;;;;;;;5074794;28;20449;-81
2022/11/12 10:13:01;;;;;;;17.23;13.43;;;;;;;;;;5071555;28;20430;-81
2022/11/12 10:18:28;;;;;;;16.70;12.88;;;;;;;;;;5067751;28;20475;-81
2022/11/12 10:20:56;;;;;;;17.38;13.38;;;;;;;;;;5067698;28;20432;-82
2022/11/12 10:23:25;;;;;;;19.60;14.13;;;;;;;;;;5073760;28;20957;-82
2022/11/12 10:25:53;;;;;;;17.88;14.25;;;;;;;;;;5070261;28;20436;-82
2022/11/12 10:28:29;;;;;;;16.73;14.77;;;;;;;;;;5067302;28;20444;-79
2022/11/12 10:30:57;;;;;;;15.32;13.65;;;;;;;;;;5071764;28;20439;-80
2022/11/12 10:33:23;;;;;;;15.52;12.02;;;;;;;;;;5068082;28;20433;-80
2022/11/12 10:35:51;;;;;;;13.40;11.77;;;;;;;;;;5068166;28;20428;-81
2022/11/12 10:38:22;;;;;;;14.65;12.20;;;;;;;;;;5070305;28;20447;-82
2022/11/12 10:40:50;;;;;;;14.60;12.68;;;;;;;;;;5072581;28;20432;-80
2022/11/12 10:43:22;;;;;;;14.07;12.20;;;;;;;;;;5072608;28;20461;-80
2022/11/12 10:45:50;;;;;;;14.68;12.20;;;;;;;;;;5075231;28;20940;-80
2022/11/12 10:48:22;;;;;;;15.52;12.73;;;;;;;;;;5067599;28;20437;-80
2022/11/12 10:50:48;;;;;;;16.20;13.13;;;;;;;;;;5070924;28;20427;-79
2022/11/12 10:53:28;;;;;;;16.77;12.10;;;;;;;;;;5069601;28;20433;-82
2022/11/12 10:55:55;;;;;;;16.58;13.07;;;;;;;;;;5065046;28;20429;-82
2022/11/12 10:58:22;;;;;;;16.15;12.30;;;;;;;;;;5066501;28;20431;-82
2022/11/12 11:00:54;;;;;;;14.50;12.00;;;;;;;;;;5065701;28;20424;-80
2022/11/12 11:03:22;;;;;;;15.70;12.20;;;;;;;;;;5064575;28;20440;-79
2022/11/12 11:05:52;;;;;;;16.00;12.93;;;;;;;;;;5066404;28;20471;-82
2022/11/12 11:08:31;;;;;;;15.88;12.90;;;;;;;;;;5069383;28;20925;-80
2022/11/12 11:11:10;;;;;;;15.02;12.40;;;;;;;;;;5066520;28;20412;-80
2022/11/12 11:13:37;;;;;;;16.55;12.88;;;;;;;;;;5067536;28;20436;-80
2022/11/12 11:16:09;;;;;;;17.73;13.13;;;;;;;;;;5064174;28;20435;-81
2022/11/12 11:18:37;;;;;;;14.20;12.70;;;;;;;;;;5062769;28;20423;-80
2022/11/12 11:21:08;;;;;;;16.48;13.00;;;;;;;;;;5063993;28;20421;-81
2022/11/12 11:23:37;;;;;;;14.80;12.93;;;;;;;;;;5062121;28;20857;-82
2022/11/12 11:26:12;;;;;;;15.00;13.30;;;;;;;;;;5070523;28;20402;-80
2022/11/12 11:28:45;;;;;;;15.90;12.90;;;;;;;;;;5066870;28;20435;-80
2022/11/12 11:31:19;;;;;;;16.45;13.23;;;;;;;;;;5067081;28;20422;-80
2022/11/12 11:33:48;;;;;;;17.90;13.40;;;;;;;;;;5065221;28;20431;-80
2022/11/12 11:36:19;;;;;;;16.85;14.18;;;;;;;;;;5061801;28;20423;-80
2022/11/12 11:38:52;;;;;;;19.83;14.40;;;;;;;;;;5079515;28;20431;-81
2022/11/12 11:41:37;;;;;;;15.55;13.95;;;;;;;;;;5066633;28;20411;-81
2022/11/12 11:44:15;;;;;;;18.08;12.60;;;;;;;;;;5064850;28;20436;-81
2022/11/12 11:46:51;;;;;;;16.90;13.40;;;;;;;;;;5062839;28;20436;-80
2022/11/12 11:49:25;;;;;;;15.82;12.85;;;;;;;;;;5064617;28;20834;-81
2022/11/12 11:51:55;;;;;;;13.52;12.13;;;;;;;;;;5067339;28;20433;-81
2022/11/12 11:54:33;;;;;;;13.50;11.40;;;;;;;;;;5066649;28;20425;-81
2022/11/12 11:57:02;;;;;;;14.52;11.30;;;;;;;;;;5066159;28;20421;-81
2022/11/12 11:59:34;;;;;;;15.35;12.10;;;;;;;;;;5067545;28;20448;-81
2022/11/12 12:02:12;;;;;;;12.93;11.25;;;;;;;;;;5066264;28;20421;-80
2022/11/12 12:04:45;;;;;;;16.47;12.00;;;;;;;;;;5064687;28;20425;-80
2022/11/12 12:07:19;;;;;;;15.52;11.18;;;;;;;;;;5063921;28;20796;-82
2022/11/12 12:09:48;;;;;;;13.35;11.60;;;;;;;;;;5065646;28;20429;-80
2022/11/12 12:12:22;;;;;;;16.45;11.70;;;;;;;;;;5068249;28;20423;-81
2022/11/12 12:14:53;;;;;;;17.05;11.38;;;;;;;;;;5065620;28;20499;-80
2022/11/12 12:17:29;;;;;;;15.67;10.83;;;;;;;;;;5060735;28;20984;-82
2022/11/12 12:20:00;;;;;;;13.50;11.77;;;;;;;;;;5062112;28;20429;-82
2022/11/12 12:22:35;;;;;;;13.83;10.83;;;;;;;;;;5070574;28;20525;-82
2022/11/12 12:25:04;;;;;;;15.32;11.63;;;;;;;;;;5066694;28;20428;-82
2022/11/12 12:27:32;;;;;;;17.63;11.30;;;;;;;;;;5067286;28;20464;-82
2022/11/12 12:30:02;;;;;;;15.15;11.52;;;;;;;;;;5063984;28;20956;-81
2022/11/12 12:32:33;;;;;;;13.68;10.30;;;;;;;;;;5080412;28;20895;-81
2022/11/12 12:35:03;;;;;;;13.88;11.10;;;;;;;;;;5088394;28;20478;-82
2022/11/12 12:37:33;;;;;;;12.48;10.90;;;;;;;;;;5069997;28;20949;-81
2022/11/12 12:40:04;;;;;;;13.23;10.73;;;;;;;;;;5065993;28;20423;-82
2022/11/12 12:42:33;;;;;;;19.10;11.35;;;;;;;;;;5063977;28;20427;-81
2022/11/12 12:45:03;;;;;;;20.00;11.57;;;;;;;;;;5067598;28;20945;-81
2022/11/12 12:47:35;;;;;;;14.73;10.90;;;;;;;;;;5059453;28;20881;-82
2022/11/12 12:50:03;;;;;;;15.35;11.40;;;;;;;;;;5062805;28;20943;-82
2022/11/12 12:52:32;;;;;;;17.38;11.50;;;;;;;;;;5069278;28;20423;-80
2022/11/12 12:54:59;;;;;;;13.98;10.68;;;;;;;;;;5070303;28;20438;-81
2022/11/12 12:57:35;;;;;;;13.85;10.88;;;;;;;;;;5064438;28;20454;-82
2022/11/12 13:00:25;;;;;;;15.82;11.60;;;;;;;;;;5064937;28;20937;-82
2022/11/12 13:02:53;;;;;;;17.20;11.95;;;;;;;;;;5063651;28;20436;-80
2022/11/12 13:05:24;;;;;;;14.38;10.90;;;;;;;;;;5071788;28;20432;-82
2022/11/12 13:07:51;;;;;;;15.07;10.65;;;;;;;;;;5070263;28;20432;-82
2022/11/12 13:10:36;;;;;;;14.05;11.30;;;;;;;;;;5068824;28;20435;-82
2022/11/12 13:13:04;;;;;;;17.20;11.25;;;;;;;;;;5066869;28;20436;-82
2022/11/12 13:15:41;;;;;;;18.13;11.30;;;;;;;;;;5066623;28;20431;-80
2022/11/12 13:18:10;;;;;;;16.13;12.25;;;;;;;;;;5065064;28;20419;-80
2022/11/12 13:20:40;;;;;;;17.02;12.35;;;;;;;;;;5067944;28;20429;-80
2022/11/12 13:23:11;;;;;;;15.43;11.50;;;;;;;;;;5067840;28;20419;-82
2022/11/12 13:25:39;;;;;;;19.43;11.50;;;;;;;;;;5065997;28;20935;-80
2022/11/12 13:28:09;;;;;;;16.02;12.02;;;;;;;;;;5069762;28;20926;-83
2022/11/12 13:30:53;;;;;;;16.58;11.55;;;;;;;;;;5066571;28;20429;-82
2022/11/12 13:33:25;;;;;;;13.18;10.93;;;;;;;;;;5058853;28;20453;-83
2022/11/12 13:35:51;;;;;;;14.77;11.50;;;;;;;;;;5065513;28;20474;-82
2022/11/12 13:38:19;;;;;;;15.50;10.35;;;;;;;;;;5070676;28;20929;-82
2022/11/12 13:40:46;;;;;;;13.13;9.43;;;;;;;;;;5065120;28;20423;-80
2022/11/12 13:43:18;;;;;;;16.88;10.93;;;;;;;;;;5065733;28;20497;-82
2022/11/12 13:45:49;;;;;;;16.20;10.37;;;;;;;;;;5056553;28;20449;-82
2022/11/12 13:48:17;;;;;;;16.48;10.65;;;;;;;;;;5077327;28;20793;-83
2022/11/12 13:50:50;;;;;;;14.52;10.10;;;;;;;;;;5064249;28;20429;-82
2022/11/12 13:53:19;;;;;;;15.65;10.18;;;;;;;;;;5071724;28;20436;-82
2022/11/12 13:55:48;;;;;;;14.88;10.52;;;;;;;;;;5066415;28;20810;-82
2022/11/12 13:58:25;;;;;;;16.45;11.15;;;;;;;;;;5066801;28;20431;-83
2022/11/12 14:00:54;;;;;;;13.30;10.07;;;;;;;;;;5070333;28;20435;-82
2022/11/12 14:03:21;;;;;;;15.10;11.50;;;;;;;;;;5072264;28;20828;-81
2022/11/12 14:05:48;;;;;;;17.00;11.85;;;;;;;;;;5063814;28;20427;-82
2022/11/12 14:08:29;;;;;;;16.35;11.30;;;;;;;;;;5066378;28;20435;-82
2022/11/12 14:11:04;;;;;;;15.40;12.65;;;;;;;;;;5062971;28;20429;-82
2022/11/12 14:13:39;;;;;;;16.98;11.75;;;;;;;;;;5071419;28;20439;-81
2022/11/12 14:16:16;;;;;;;16.23;11.77;;;;;;;;;;5061644;28;20412;-81
2022/11/12 14:18:50;;;;;;;17.90;12.48;;;;;;;;;;5066929;28;20427;-81
2022/11/12 14:21:18;;;;;;;16.90;11.27;;;;;;;;;;5066918;28;20925;-83
2022/11/12 14:23:45;;;;;;;17.50;13.40;;;;;;;;;;5064102;28;20516;-82
2022/11/12 14:26:14;;;;;;;18.40;13.95;;;;;;;;;;5063451;28;20419;-82
2022/11/12 14:28:42;;;;;;;15.45;12.80;;;;;;;;;;5071573;28;20423;-82
2022/11/12 14:31:12;;;;;;;15.88;12.82;;;;;;;;;;5071187;28;20913;-82
2022/11/12 14:33:39;;;;;;;15.10;13.03;;;;;;;;;;5065162;28;20427;-81
2022/11/12 14:36:07;;;;;;;17.33;12.93;;;;;;;;;;5066862;28;20403;-82
2022/11/12 14:38:35;;;;;;;21.08;13.90;;;;;;;;;;5064145;28;20428;-82
2022/11/12 14:41:03;;;;;;;18.00;13.40;;;;;;;;;;5069114;28;20405;-83
2022/11/12 14:43:35;;;;;;;17.33;14.47;;;;;;;;;;5060496;28;20424;-83
2022/11/12 14:46:02;;;;;;;21.33;14.40;;;;;;;;;;5071477;28;20777;-82